sensor_id;sensor_type;location;lat;lon;timestamp;pressure;altitude;pressure_sealevel;temperature;humidity
7662;BME280;30314;48.184;11.510;2023-02-08T00:01:43;97766.69;;;-5.71;78.16
7662;BME280;30314;48.184;11.510;2023-02-08T00:04:09;97762.88;;;-5.77;79.16
7662;BME280;30314;48.184;11.510;2023-02-08T00:06:36;97767.38;;;-5.79;79.51
7662;BME280;30314;48.184;11.510;2023-02-08T00:09:02;97742.53;;;-6.00;80.16
7662;BME280;30314;48.184;11.510;2023-02-08T00:11:29;97758.38;;;-5.95;80.56
7662;BME280;30314;48.184;11.510;2023-02-08T00:13:55;97753.22;;;-5.95;81.66
7662;BME280;30314;48.184;11.510;2023-02-08T00:16:22;97771.81;;;-5.91;81.84
7662;BME280;30314;48.184;11.510;2023-02-08T00:18:48;97762.47;;;-5.92;82.15
7662;BME280;30314;48.184;11.510;2023-02-08T00:21:16;97746.84;;;-6.10;82.72
7662;BME280;30314;48.184;11.510;2023-02-08T00:23:43;97761.63;;;-6.02;83.29
7662;BME280;30314;48.184;11.510;2023-02-08T00:26:11;97751.31;;;-6.12;83.95
7662;BME280;30314;48.184;11.510;2023-02-08T00:28:39;97753.38;;;-6.06;84.37
7662;BME280;30314;48.184;11.510;2023-02-08T00:31:06;97755.81;;;-6.04;84.47
7662;BME280;30314;48.184;11.510;2023-02-08T00:33:33;97734.53;;;-6.06;84.50
7662;BME280;30314;48.184;11.510;2023-02-08T00:36:01;97729.00;;;-6.02;84.16
7662;BME280;30314;48.184;11.510;2023-02-08T00:38:28;97732.53;;;-6.03;84.87
7662;BME280;30314;48.184;11.510;2023-02-08T00:40:54;97726.03;;;-5.97;84.38
7662;BME280;30314;48.184;11.510;2023-02-08T00:43:22;97731.19;;;-5.87;84.63
7662;BME280;30314;48.184;11.510;2023-02-08T00:45:55;97738.78;;;-5.76;83.36
7662;BME280;30314;48.184;11.510;2023-02-08T00:48:24;97745.53;;;-5.95;84.42
7662;BME280;30314;48.184;11.510;2023-02-08T00:51:03;97750.38;;;-6.01;85.40
7662;BME280;30314;48.184;11.510;2023-02-08T00:53:29;97727.22;;;-6.21;85.28
7662;BME280;30314;48.184;11.510;2023-02-08T00:55:56;97737.66;;;-6.13;85.80
7662;BME280;30314;48.184;11.510;2023-02-08T00:58:23;97748.88;;;-6.14;85.93
7662;BME280;30314;48.184;11.510;2023-02-08T01:00:51;97734.66;;;-6.28;87.00
7662;BME280;30314;48.184;11.510;2023-02-08T01:03:20;97745.91;;;-6.19;86.61
7662;BME280;30314;48.184;11.510;2023-02-08T01:05:47;97746.97;;;-6.21;86.36
7662;BME280;30314;48.184;11.510;2023-02-08T01:08:14;97741.00;;;-6.32;87.31
7662;BME280;30314;48.184;11.510;2023-02-08T01:10:40;97744.75;;;-6.36;88.36
7662;BME280;30314;48.184;11.510;2023-02-08T01:13:08;97729.88;;;-6.42;87.30
7662;BME280;30314;48.184;11.510;2023-02-08T01:15:35;97734.34;;;-6.44;88.80
7662;BME280;30314;48.184;11.510;2023-02-08T01:18:02;97744.34;;;-6.41;89.84
7662;BME280;30314;48.184;11.510;2023-02-08T01:20:29;97738.25;;;-6.50;89.24
7662;BME280;30314;48.184;11.510;2023-02-08T01:22:55;97744.19;;;-6.49;89.62
7662;BME280;30314;48.184;11.510;2023-02-08T01:25:22;97734.56;;;-6.57;90.30
7662;BME280;30314;48.184;11.510;2023-02-08T01:27:48;97741.63;;;-6.49;90.77
7662;BME280;30314;48.184;11.510;2023-02-08T01:30:15;97738.38;;;-6.52;91.44
7662;BME280;30314;48.184;11.510;2023-02-08T01:32:42;97728.09;;;-6.52;90.84
7662;BME280;30314;48.184;11.510;2023-02-08T01:35:09;97727.69;;;-6.47;90.71
7662;BME280;30314;48.184;11.510;2023-02-08T01:37:36;97727.56;;;-6.45;90.24
7662;BME280;30314;48.184;11.510;2023-02-08T01:40:02;97730.44;;;-6.39;90.95
7662;BME280;30314;48.184;11.510;2023-02-08T01:42:29;97734.63;;;-6.38;90.31
7662;BME280;30314;48.184;11.510;2023-02-08T01:47:42;97723.00;;;-6.32;90.29
7662;BME280;30314;48.184;11.510;2023-02-08T01:50:11;97728.66;;;-6.38;89.67
7662;BME280;30314;48.184;11.510;2023-02-08T01:52:41;97720.16;;;-6.29;89.70
7662;BME280;30314;48.184;11.510;2023-02-08T01:55:17;97722.72;;;-6.29;90.52
7662;BME280;30314;48.184;11.510;2023-02-08T01:57:47;97731.66;;;-6.33;90.52
7662;BME280;30314;48.184;11.510;2023-02-08T02:00:19;97735.44;;;-6.27;90.31
7662;BME280;30314;48.184;11.510;2023-02-08T02:02:50;97732.47;;;-6.32;90.96
7662;BME280;30314;48.184;11.510;2023-02-08T02:05:25;97740.16;;;-6.42;92.06
7662;BME280;30314;48.184;11.510;2023-02-08T02:07:54;97732.19;;;-6.39;91.93
7662;BME280;30314;48.184;11.510;2023-02-08T02:10:31;97708.75;;;-6.46;92.09
7662;BME280;30314;48.184;11.510;2023-02-08T02:13:07;97717.03;;;-6.32;91.18
7662;BME280;30314;48.184;11.510;2023-02-08T02:15:34;97732.19;;;-6.39;91.71
7662;BME280;30314;48.184;11.510;2023-02-08T02:18:04;97704.00;;;-6.41;92.35
7662;BME280;30314;48.184;11.510;2023-02-08T02:25:58;97724.47;;;-6.39;93.18
7662;BME280;30314;48.184;11.510;2023-02-08T02:34:23;97712.25;;;-6.57;93.57
7662;BME280;30314;48.184;11.510;2023-02-08T02:42:51;97726.94;;;-6.69;94.12
7662;BME280;30314;48.184;11.510;2023-02-08T02:45:58;97720.69;;;-6.76;94.89
7662;BME280;30314;48.184;11.510;2023-02-08T02:51:40;97721.69;;;-6.67;94.04
7662;BME280;30314;48.184;11.510;2023-02-08T02:54:17;97715.84;;;-6.69;95.00
7662;BME280;30314;48.184;11.510;2023-02-08T02:56:48;97716.81;;;-6.70;94.94
7662;BME280;30314;48.184;11.510;2023-02-08T02:59:17;97719.78;;;-6.65;95.63
7662;BME280;30314;48.184;11.510;2023-02-08T03:01:45;97719.28;;;-6.59;95.10
7662;BME280;30314;48.184;11.510;2023-02-08T03:04:46;97722.94;;;-6.52;93.51
7662;BME280;30314;48.184;11.510;2023-02-08T03:07:46;97721.16;;;-6.61;94.93
7662;BME280;30314;48.184;11.510;2023-02-08T03:19:53;97728.25;;;-6.43;93.32
7662;BME280;30314;48.184;11.510;2023-02-08T03:21:54;97728.25;;;-6.43;93.14
7662;BME280;30314;48.184;11.510;2023-02-08T03:32:49;97699.59;;;-6.80;95.43
7662;BME280;30314;48.184;11.510;2023-02-08T03:35:32;97712.69;;;-6.83;94.67
7662;BME280;30314;48.184;11.510;2023-02-08T03:38:13;97711.50;;;-6.69;94.79
7662;BME280;30314;48.184;11.510;2023-02-08T03:40:43;97714.75;;;-6.76;95.08
7662;BME280;30314;48.184;11.510;2023-02-08T03:43:15;97713.28;;;-6.69;95.44
7662;BME280;30314;48.184;11.510;2023-02-08T03:45:53;97699.59;;;-6.80;94.98
7662;BME280;30314;48.184;11.510;2023-02-08T03:48:22;97715.69;;;-6.77;96.16
7662;BME280;30314;48.184;11.510;2023-02-08T03:50:52;97704.31;;;-6.85;96.44
7662;BME280;30314;48.184;11.510;2023-02-08T03:53:21;97715.28;;;-6.73;96.37
7662;BME280;30314;48.184;11.510;2023-02-08T03:55:54;97703.09;;;-6.81;95.79
7662;BME280;30314;48.184;11.510;2023-02-08T03:58:24;97694.72;;;-6.83;96.47
7662;BME280;30314;48.184;11.510;2023-02-08T04:00:56;97709.34;;;-6.73;95.81
7662;BME280;30314;48.184;11.510;2023-02-08T04:03:29;97706.25;;;-6.67;96.58
7662;BME280;30314;48.184;11.510;2023-02-08T04:05:56;97703.50;;;-6.75;95.30
7662;BME280;30314;48.184;11.510;2023-02-08T04:08:24;97693.38;;;-6.77;95.67
7662;BME280;30314;48.184;11.510;2023-02-08T04:10:51;97690.91;;;-6.88;96.38
7662;BME280;30314;48.184;11.510;2023-02-08T04:13:17;97685.16;;;-7.02;97.73
7662;BME280;30314;48.184;11.510;2023-02-08T04:15:44;97702.53;;;-6.84;97.29
7662;BME280;30314;48.184;11.510;2023-02-08T04:18:10;97696.69;;;-6.96;97.45
7662;BME280;30314;48.184;11.510;2023-02-08T04:20:37;97679.75;;;-6.99;98.42
7662;BME280;30314;48.184;11.510;2023-02-08T04:23:03;97679.25;;;-6.92;98.47
7662;BME280;30314;48.184;11.510;2023-02-08T04:25:30;97688.44;;;-6.90;98.42
7662;BME280;30314;48.184;11.510;2023-02-08T04:27:56;97679.88;;;-7.00;98.37
7662;BME280;30314;48.184;11.510;2023-02-08T04:30:23;97676.78;;;-7.04;98.66
7662;BME280;30314;48.184;11.510;2023-02-08T04:32:49;97666.38;;;-7.02;99.13
7662;BME280;30314;48.184;11.510;2023-02-08T04:35:16;97669.53;;;-6.89;99.07
7662;BME280;30314;48.184;11.510;2023-02-08T04:37:42;97689.47;;;-6.71;99.40
7662;BME280;30314;48.184;11.510;2023-02-08T04:40:09;97676.34;;;-6.68;98.21
7662;BME280;30314;48.184;11.510;2023-02-08T04:42:36;97685.88;;;-6.59;97.05
7662;BME280;30314;48.184;11.510;2023-02-08T04:45:02;97685.06;;;-6.49;96.79
7662;BME280;30314;48.184;11.510;2023-02-08T04:47:29;97679.13;;;-6.50;96.37
7662;BME280;30314;48.184;11.510;2023-02-08T04:49:55;97671.00;;;-6.45;95.96
7662;BME280;30314;48.184;11.510;2023-02-08T04:52:22;97674.53;;;-6.36;94.55
7662;BME280;30314;48.184;11.510;2023-02-08T04:54:48;97678.72;;;-6.35;94.42
7662;BME280;30314;48.184;11.510;2023-02-08T04:57:15;97666.25;;;-6.50;95.12
7662;BME280;30314;48.184;11.510;2023-02-08T04:59:41;97670.06;;;-6.44;94.89
7662;BME280;30314;48.184;11.510;2023-02-08T05:02:08;97666.38;;;-6.52;95.68
7662;BME280;30314;48.184;11.510;2023-02-08T05:04:35;97675.31;;;-6.56;96.33
7662;BME280;30314;48.184;11.510;2023-02-08T05:07:01;97662.97;;;-6.62;96.22
7662;BME280;30314;48.184;11.510;2023-02-08T05:09:28;97673.53;;;-6.65;96.62
7662;BME280;30314;48.184;11.510;2023-02-08T05:11:54;97656.50;;;-6.56;96.95
7662;BME280;30314;48.184;11.510;2023-02-08T05:14:21;97660.13;;;-6.69;96.55
7662;BME280;30314;48.184;11.510;2023-02-08T05:16:47;97661.06;;;-6.70;96.65
7662;BME280;30314;48.184;11.510;2023-02-08T05:19:14;97660.84;;;-6.57;97.37
7662;BME280;30314;48.184;11.510;2023-02-08T05:21:40;97651.63;;;-6.49;96.16
7662;BME280;30314;48.184;11.510;2023-02-08T05:24:07;97651.88;;;-6.62;96.68
7662;BME280;30314;48.184;11.510;2023-02-08T05:26:39;97653.41;;;-6.40;98.05
7662;BME280;30314;48.184;11.510;2023-02-08T05:29:06;97667.34;;;-6.43;98.10
7662;BME280;30314;48.184;11.510;2023-02-08T05:31:33;97661.25;;;-6.52;97.11
7662;BME280;30314;48.184;11.510;2023-02-08T05:34:00;97654.75;;;-6.36;95.17
7662;BME280;30314;48.184;11.510;2023-02-08T05:36:27;97675.22;;;-6.25;96.71
7662;BME280;30314;48.184;11.510;2023-02-08T05:38:53;97663.72;;;-6.30;96.15
7662;BME280;30314;48.184;11.510;2023-02-08T05:41:20;97652.88;;;-6.44;95.95
7662;BME280;30314;48.184;11.510;2023-02-08T05:43:46;97658.00;;;-6.44;95.92
7662;BME280;30314;48.184;11.510;2023-02-08T05:46:13;97669.78;;;-6.41;96.07
7662;BME280;30314;48.184;11.510;2023-02-08T05:48:40;97654.34;;;-6.51;96.27
7662;BME280;30314;48.184;11.510;2023-02-08T05:51:06;97671.25;;;-6.48;97.90
7662;BME280;30314;48.184;11.510;2023-02-08T05:53:33;97656.50;;;-6.56;97.73
7662;BME280;30314;48.184;11.510;2023-02-08T05:55:59;97666.13;;;-6.48;97.75
7662;BME280;30314;48.184;11.510;2023-02-08T05:58:26;97655.81;;;-6.58;97.88
7662;BME280;30314;48.184;11.510;2023-02-08T06:00:53;97669.28;;;-6.25;97.24
7662;BME280;30314;48.184;11.510;2023-02-08T06:03:22;97662.38;;;-6.25;96.15
7662;BME280;30314;48.184;11.510;2023-02-08T06:05:49;97664.25;;;-6.27;95.29
7662;BME280;30314;48.184;11.510;2023-02-08T06:08:15;97655.19;;;-6.21;95.30
7662;BME280;30314;48.184;11.510;2023-02-08T06:10:42;97655.59;;;-6.26;94.83
7662;BME280;30314;48.184;11.510;2023-02-08T06:13:09;97672.66;;;-6.15;95.98
7662;BME280;30314;48.184;11.510;2023-02-08T06:15:35;97651.94;;;-6.13;96.66
7662;BME280;30314;48.184;11.510;2023-02-08T06:18:02;97672.94;;;-6.08;96.64
7662;BME280;30314;48.184;11.510;2023-02-08T06:20:28;97650.31;;;-6.14;95.11
7662;BME280;30314;48.184;11.510;2023-02-08T06:22:55;97655.47;;;-6.04;94.47
7662;BME280;30314;48.184;11.510;2023-02-08T06:25:21;97643.13;;;-6.20;93.93
7662;BME280;30314;48.184;11.510;2023-02-08T06:27:48;97648.56;;;-6.14;94.72
7662;BME280;30314;48.184;11.510;2023-02-08T06:30:14;97650.06;;;-6.11;95.28
7662;BME280;30314;48.184;11.510;2023-02-08T06:32:41;97644.63;;;-6.18;95.20
7662;BME280;30314;48.184;11.510;2023-02-08T06:35:08;97657.63;;;-6.10;94.15
7662;BME280;30314;48.184;11.510;2023-02-08T06:37:34;97665.09;;;-6.06;95.61
7662;BME280;30314;48.184;11.510;2023-02-08T06:40:02;97660.88;;;-6.07;94.29
7662;BME280;30314;48.184;11.510;2023-02-08T06:42:29;97674.53;;;-6.07;95.05
7662;BME280;30314;48.184;11.510;2023-02-08T06:44:55;97668.88;;;-6.11;94.38
7662;BME280;30314;48.184;11.510;2023-02-08T06:47:24;97679.97;;;-6.00;94.46
7662;BME280;30314;48.184;11.510;2023-02-08T06:49:51;97676.72;;;-6.12;95.39
7662;BME280;30314;48.184;11.510;2023-02-08T06:52:18;97682.13;;;-6.05;94.21
7662;BME280;30314;48.184;11.510;2023-02-08T06:54:45;97694.06;;;-5.95;93.83
7662;BME280;30314;48.184;11.510;2023-02-08T06:57:12;97698.69;;;-5.98;93.95
7662;BME280;30314;48.184;11.510;2023-02-08T06:59:39;97695.72;;;-5.93;93.70
7662;BME280;30314;48.184;11.510;2023-02-08T07:02:14;97701.13;;;-5.87;93.80
7662;BME280;30314;48.184;11.510;2023-02-08T07:04:41;97690.81;;;-6.06;94.73
7662;BME280;30314;48.184;11.510;2023-02-08T07:07:11;97698.66;;;-6.08;96.06
7662;BME280;30314;48.184;11.510;2023-02-08T07:09:38;97709.25;;;-5.91;95.25
7662;BME280;30314;48.184;11.510;2023-02-08T07:12:05;97700.41;;;-5.89;95.29
7662;BME280;30314;48.184;11.510;2023-02-08T07:14:33;97700.97;;;-5.85;95.23
7662;BME280;30314;48.184;11.510;2023-02-08T07:17:01;97702.88;;;-5.87;94.29
7662;BME280;30314;48.184;11.510;2023-02-08T07:19:28;97702.88;;;-5.97;96.25
7662;BME280;30314;48.184;11.510;2023-02-08T07:21:55;97705.16;;;-5.84;95.84
7662;BME280;30314;48.184;11.510;2023-02-08T07:24:22;97695.16;;;-5.87;95.88
7662;BME280;30314;48.184;11.510;2023-02-08T07:26:49;97693.41;;;-5.87;95.22
7662;BME280;30314;48.184;11.510;2023-02-08T07:29:15;97690.16;;;-5.79;95.04
7662;BME280;30314;48.184;11.510;2023-02-08T07:31:42;97694.59;;;-5.81;95.22
7662;BME280;30314;48.184;11.510;2023-02-08T07:34:08;97703.97;;;-5.70;96.00
7662;BME280;30314;48.184;11.510;2023-02-08T07:36:34;97699.88;;;-5.73;96.49
7662;BME280;30314;48.184;11.510;2023-02-08T07:39:01;97695.97;;;-5.67;96.56
7662;BME280;30314;48.184;11.510;2023-02-08T07:41:28;97701.22;;;-5.69;96.97
7662;BME280;30314;48.184;11.510;2023-02-08T07:43:54;97703.28;;;-5.62;95.67
7662;BME280;30314;48.184;11.510;2023-02-08T07:46:21;97700.03;;;-5.64;96.19
7662;BME280;30314;48.184;11.510;2023-02-08T07:48:47;97685.28;;;-5.72;96.02
7662;BME280;30314;48.184;11.510;2023-02-08T07:51:18;97707.19;;;-5.58;96.79
7662;BME280;30314;48.184;11.510;2023-02-08T07:53:44;97699.06;;;-5.63;96.99
7662;BME280;30314;48.184;11.510;2023-02-08T07:56:11;97681.03;;;-5.54;96.64
7662;BME280;30314;48.184;11.510;2023-02-08T07:58:38;97682.50;;;-5.41;96.45
7662;BME280;30314;48.184;11.510;2023-02-08T08:01:05;97681.97;;;-5.45;96.03
7662;BME280;30314;48.184;11.510;2023-02-08T08:03:47;97682.47;;;-5.31;95.88
7662;BME280;30314;48.184;11.510;2023-02-08T08:06:14;97688.53;;;-5.22;95.84
7662;BME280;30314;48.184;11.510;2023-02-08T08:08:40;97677.97;;;-5.19;95.15
7662;BME280;30314;48.184;11.510;2023-02-08T08:11:08;97677.81;;;-5.18;94.63
7662;BME280;30314;48.184;11.510;2023-02-08T08:13:34;97670.06;;;-5.18;91.26
7662;BME280;30314;48.184;11.510;2023-02-08T08:16:01;97672.81;;;-5.19;92.18
7662;BME280;30314;48.184;11.510;2023-02-08T08:18:27;97684.41;;;-5.05;92.37
7662;BME280;30314;48.184;11.510;2023-02-08T08:20:54;97689.97;;;-5.00;93.20
7662;BME280;30314;48.184;11.510;2023-02-08T08:23:21;97702.19;;;-4.74;93.53
7662;BME280;30314;48.184;11.510;2023-02-08T08:25:48;97675.91;;;-4.78;91.92
7662;BME280;30314;48.184;11.510;2023-02-08T08:28:15;97687.00;;;-4.77;91.70
7662;BME280;30314;48.184;11.510;2023-02-08T08:30:42;97681.66;;;-4.94;91.87
7662;BME280;30314;48.184;11.510;2023-02-08T08:33:10;97699.84;;;-4.68;93.16
7662;BME280;30314;48.184;11.510;2023-02-08T08:35:37;97677.53;;;-4.77;91.42
7662;BME280;30314;48.184;11.510;2023-02-08T08:38:03;97687.13;;;-4.69;91.82
7662;BME280;30314;48.184;11.510;2023-02-08T08:40:30;97689.16;;;-4.73;91.90
7662;BME280;30314;48.184;11.510;2023-02-08T08:42:57;97688.03;;;-4.60;91.80
7662;BME280;30314;48.184;11.510;2023-02-08T08:45:23;97688.63;;;-4.48;90.47
7662;BME280;30314;48.184;11.510;2023-02-08T08:47:49;97691.59;;;-4.43;90.83
7662;BME280;30314;48.184;11.510;2023-02-08T08:50:16;97694.78;;;-4.31;90.57
7662;BME280;30314;48.184;11.510;2023-02-08T08:52:42;97689.00;;;-4.15;90.54
7662;BME280;30314;48.184;11.510;2023-02-08T08:55:09;97681.69;;;-4.20;89.31
7662;BME280;30314;48.184;11.510;2023-02-08T08:57:35;97678.75;;;-4.07;88.85
7662;BME280;30314;48.184;11.510;2023-02-08T09:00:03;97688.56;;;-3.92;88.20
7662;BME280;30314;48.184;11.510;2023-02-08T09:02:29;97697.84;;;-3.81;88.06
7662;BME280;30314;48.184;11.510;2023-02-08T09:04:56;97690.31;;;-3.75;88.11
7662;BME280;30314;48.184;11.510;2023-02-08T09:07:25;97691.84;;;-3.82;87.18
7662;BME280;30314;48.184;11.510;2023-02-08T09:09:52;97684.91;;;-3.63;89.40
7662;BME280;30314;48.184;11.510;2023-02-08T09:12:18;97695.91;;;-3.61;86.07
7662;BME280;30314;48.184;11.510;2023-02-08T09:14:44;97685.84;;;-3.46;86.83
7662;BME280;30314;48.184;11.510;2023-02-08T09:17:11;97684.78;;;-3.35;85.54
7662;BME280;30314;48.184;11.510;2023-02-08T09:19:37;97684.25;;;-3.47;85.12
7662;BME280;30314;48.184;11.510;2023-02-08T09:22:07;97680.06;;;-3.40;85.53
7662;BME280;30314;48.184;11.510;2023-02-08T09:24:34;97700.50;;;-3.29;84.78
7662;BME280;30314;48.184;11.510;2023-02-08T09:27:00;97683.38;;;-3.30;83.74
7662;BME280;30314;48.184;11.510;2023-02-08T09:29:27;97674.03;;;-3.22;84.00
7662;BME280;30314;48.184;11.510;2023-02-08T09:31:55;97684.28;;;-3.13;83.13
7662;BME280;30314;48.184;11.510;2023-02-08T09:34:22;97694.06;;;-2.98;84.06
7662;BME280;30314;48.184;11.510;2023-02-08T09:36:48;97684.69;;;-2.99;82.83
7662;BME280;30314;48.184;11.510;2023-02-08T09:39:21;97698.91;;;-2.95;83.42
7662;BME280;30314;48.184;11.510;2023-02-08T09:47:28;97692.25;;;-2.71;84.38
7662;BME280;30314;48.184;11.510;2023-02-08T09:50:02;97697.97;;;-2.51;83.54
7662;BME280;30314;48.184;11.510;2023-02-08T09:52:38;97701.06;;;-2.47;82.09
7662;BME280;30314;48.184;11.510;2023-02-08T09:55:20;97709.03;;;-2.32;83.46
7662;BME280;30314;48.184;11.510;2023-02-08T09:57:52;97699.97;;;-2.36;80.53
7662;BME280;30314;48.184;11.510;2023-02-08T10:00:29;97695.91;;;-2.47;80.76
7662;BME280;30314;48.184;11.510;2023-02-08T10:02:58;97692.44;;;-2.64;80.88
7662;BME280;30314;48.184;11.510;2023-02-08T10:05:27;97691.47;;;-2.63;81.41
7662;BME280;30314;48.184;11.510;2023-02-08T10:07:55;97693.41;;;-2.57;81.59
7662;BME280;30314;48.184;11.510;2023-02-08T10:10:38;97686.34;;;-2.55;83.75
7662;BME280;30314;48.184;11.510;2023-02-08T10:16:18;97694.00;;;-2.29;80.28
7662;BME280;30314;48.184;11.510;2023-02-08T10:27:14;97683.34;;;-2.17;80.66
7662;BME280;30314;48.184;11.510;2023-02-08T10:29:47;97689.38;;;-1.83;78.11
7662;BME280;30314;48.184;11.510;2023-02-08T10:32:33;97668.66;;;-2.00;77.98
7662;BME280;30314;48.184;11.510;2023-02-08T10:35:12;97679.53;;;-1.63;79.00
7662;BME280;30314;48.184;11.510;2023-02-08T10:37:40;97680.16;;;-1.45;77.34
7662;BME280;30314;48.184;11.510;2023-02-08T10:49:16;97659.41;;;-1.28;73.97
7662;BME280;30314;48.184;11.510;2023-02-08T10:51:45;97679.84;;;-1.41;76.11
7662;BME280;30314;48.184;11.510;2023-02-08T10:54:13;97651.00;;;-1.38;75.98
7662;BME280;30314;48.184;11.510;2023-02-08T10:56:46;97654.22;;;-1.28;74.46
7662;BME280;30314;48.184;11.510;2023-02-08T10:59:19;97649.84;;;-1.36;75.76
7662;BME280;30314;48.184;11.510;2023-02-08T11:01:48;97654.22;;;-1.28;75.45
7662;BME280;30314;48.184;11.510;2023-02-08T11:04:15;97630.84;;;-1.20;73.79
7662;BME280;30314;48.184;11.510;2023-02-08T11:06:43;97639.59;;;-1.21;74.19
7662;BME280;30314;48.184;11.510;2023-02-08T11:09:28;97629.09;;;-1.28;74.77
7662;BME280;30314;48.184;11.510;2023-02-08T11:11:56;97632.81;;;-1.22;75.08
7662;BME280;30314;48.184;11.510;2023-02-08T11:14:39;97643.31;;;-1.07;74.83
7662;BME280;30314;48.184;11.510;2023-02-08T11:17:30;97628.09;;;-1.18;74.66
7662;BME280;30314;48.184;11.510;2023-02-08T11:19:58;97629.53;;;-1.07;74.65
7662;BME280;30314;48.184;11.510;2023-02-08T11:22:26;97640.38;;;-1.12;75.67
7662;BME280;30314;48.184;11.510;2023-02-08T11:25:02;97645.53;;;-0.95;75.58
7662;BME280;30314;48.184;11.510;2023-02-08T11:27:32;97638.41;;;-1.02;74.31
7662;BME280;30314;48.184;11.510;2023-02-08T11:30:19;97623.97;;;-0.96;74.46
7662;BME280;30314;48.184;11.510;2023-02-08T11:32:48;97635.00;;;-0.94;72.86
7662;BME280;30314;48.184;11.510;2023-02-08T11:35:22;97631.47;;;-1.01;74.66
7662;BME280;30314;48.184;11.510;2023-02-08T11:37:54;97624.38;;;-1.16;75.74
7662;BME280;30314;48.184;11.510;2023-02-08T11:40:36;97621.16;;;-0.86;74.79
7662;BME280;30314;48.184;11.510;2023-02-08T11:43:19;97617.16;;;-0.89;74.13
7662;BME280;30314;48.184;11.510;2023-02-08T11:45:47;97604.53;;;-1.00;75.29
7662;BME280;30314;48.184;11.510;2023-02-08T11:48:30;97626.44;;;-0.63;74.71
7662;BME280;30314;48.184;11.510;2023-02-08T11:51:00;97624.16;;;-0.66;73.01
7662;BME280;30314;48.184;11.510;2023-02-08T11:53:36;97622.13;;;-0.79;73.06
7662;BME280;30314;48.184;11.510;2023-02-08T11:56:17;97617.44;;;-0.83;72.87
7662;BME280;30314;48.184;11.510;2023-02-08T12:01:41;97609.59;;;-1.07;74.73
7662;BME280;30314;48.184;11.510;2023-02-08T12:04:15;97598.94;;;-1.20;76.25
7662;BME280;30314;48.184;11.510;2023-02-08T12:12:45;97586.19;;;-0.98;75.46
7662;BME280;30314;48.184;11.510;2023-02-08T12:18:43;97580.44;;;-1.17;75.15
7662;BME280;30314;48.184;11.510;2023-02-08T12:21:21;97595.00;;;-1.08;75.08
7662;BME280;30314;48.184;11.510;2023-02-08T12:24:32;97578.78;;;-1.10;76.24
7662;BME280;30314;48.184;11.510;2023-02-08T12:27:15;97571.72;;;-1.24;76.89
7662;BME280;30314;48.184;11.510;2023-02-08T12:38:20;97553.97;;;-1.52;78.73
7662;BME280;30314;48.184;11.510;2023-02-08T12:44:33;97547.66;;;-1.41;76.09
7662;BME280;30314;48.184;11.510;2023-02-08T12:47:29;97563.78;;;-1.31;78.27
7662;BME280;30314;48.184;11.510;2023-02-08T12:53:21;97540.03;;;-1.51;78.32
7662;BME280;30314;48.184;11.510;2023-02-08T12:55:52;97528.84;;;-1.44;78.18
7662;BME280;30314;48.184;11.510;2023-02-08T12:58:36;97539.94;;;-1.18;77.29
7662;BME280;30314;48.184;11.510;2023-02-08T13:01:14;97532.50;;;-1.21;75.36
7662;BME280;30314;48.184;11.510;2023-02-08T13:04:12;97540.66;;;-1.41;75.98
7662;BME280;30314;48.184;11.510;2023-02-08T13:06:42;97520.34;;;-1.61;76.63
7662;BME280;30314;48.184;11.510;2023-02-08T13:09:27;97519.81;;;-1.56;78.02
7662;BME280;30314;48.184;11.510;2023-02-08T13:12:29;97522.09;;;-1.61;77.91
7662;BME280;30314;48.184;11.510;2023-02-08T13:15:06;97513.53;;;-1.62;78.10
7662;BME280;30314;48.184;11.510;2023-02-08T13:17:49;97503.66;;;-1.66;78.60
7662;BME280;30314;48.184;11.510;2023-02-08T13:20:26;97507.56;;;-1.71;78.12
7662;BME280;30314;48.184;11.510;2023-02-08T13:23:01;97510.97;;;-1.70;77.54
7662;BME280;30314;48.184;11.510;2023-02-08T13:25:32;97503.69;;;-1.75;77.69
7662;BME280;30314;48.184;11.510;2023-02-08T13:28:01;97495.28;;;-1.85;78.55
7662;BME280;30314;48.184;11.510;2023-02-08T13:30:28;97495.41;;;-1.70;78.17
7662;BME280;30314;48.184;11.510;2023-02-08T13:32:56;97492.63;;;-1.60;77.47
7662;BME280;30314;48.184;11.510;2023-02-08T13:35:26;97503.63;;;-1.58;76.06
7662;BME280;30314;48.184;11.510;2023-02-08T13:38:02;97483.09;;;-1.68;76.63
7662;BME280;30314;48.184;11.510;2023-02-08T13:40:35;97489.41;;;-1.71;78.09
7662;BME280;30314;48.184;11.510;2023-02-08T13:43:09;97480.88;;;-1.79;77.76
7662;BME280;30314;48.184;11.510;2023-02-08T13:46:00;97495.34;;;-1.53;76.54
7662;BME280;30314;48.184;11.510;2023-02-08T13:48:40;97484.72;;;-1.67;78.18
7662;BME280;30314;48.184;11.510;2023-02-08T13:59:04;97482.19;;;-1.44;78.14
7662;BME280;30314;48.184;11.510;2023-02-08T14:01:34;97485.13;;;-1.47;77.61
7662;BME280;30314;48.184;11.510;2023-02-08T14:09:39;97458.91;;;-1.52;77.03
7662;BME280;30314;48.184;11.510;2023-02-08T14:12:45;97474.50;;;-1.60;78.03
7662;BME280;30314;48.184;11.510;2023-02-08T14:17:47;97468.13;;;-1.49;76.70
7662;BME280;30314;48.184;11.510;2023-02-08T14:20:26;97477.00;;;-1.44;77.88
7662;BME280;30314;48.184;11.510;2023-02-08T14:22:58;97470.06;;;-1.43;74.88
7662;BME280;30314;48.184;11.510;2023-02-08T14:25:29;97484.78;;;-1.44;74.13
7662;BME280;30314;48.184;11.510;2023-02-08T14:28:04;97480.44;;;-1.51;76.34
7662;BME280;30314;48.184;11.510;2023-02-08T14:30:33;97474.75;;;-1.38;74.75
7662;BME280;30314;48.184;11.510;2023-02-08T14:35:36;97457.44;;;-1.46;74.29
7662;BME280;30314;48.184;11.510;2023-02-08T14:40:59;97471.31;;;-1.39;75.19
7662;BME280;30314;48.184;11.510;2023-02-08T14:43:37;97470.84;;;-1.43;74.94
7662;BME280;30314;48.184;11.510;2023-02-08T14:49:34;97459.69;;;-1.43;74.75
7662;BME280;30314;48.184;11.510;2023-02-08T14:52:06;97460.44;;;-1.26;73.81
7662;BME280;30314;48.184;11.510;2023-02-08T14:54:43;97465.97;;;-1.29;75.42
7662;BME280;30314;48.184;11.510;2023-02-08T14:57:33;97455.00;;;-1.16;73.45
7662;BME280;30314;48.184;11.510;2023-02-08T15:00:05;97467.34;;;-1.18;73.99
7662;BME280;30314;48.184;11.510;2023-02-08T15:02:32;97455.59;;;-1.29;73.41
7662;BME280;30314;48.184;11.510;2023-02-08T15:05:02;97466.88;;;-1.22;72.16
7662;BME280;30314;48.184;11.510;2023-02-08T15:07:46;97462.38;;;-1.28;70.65
7662;BME280;30314;48.184;11.510;2023-02-08T15:10:16;97463.00;;;-1.26;70.97
7662;BME280;30314;48.184;11.510;2023-02-08T15:12:48;97459.47;;;-1.33;71.22
7662;BME280;30314;48.184;11.510;2023-02-08T15:15:23;97453.63;;;-1.27;71.16
7662;BME280;30314;48.184;11.510;2023-02-08T15:17:51;97466.53;;;-1.19;69.62